sensor_id;sensor_type;location;lat;lon;timestamp;temperature;humidity
10911;DHT22;5508;49.150;11.030;2023-07-13T00:01:55;18.30;99.90
10911;DHT22;5508;49.150;11.030;2023-07-13T00:04:55;18.20;99.90
10911;DHT22;5508;49.150;11.030;2023-07-13T00:07:56;18.20;99.90
10911;DHT22;5508;49.150;11.030;2023-07-13T00:10:56;18.20;99.90
10911;DHT22;5508;49.150;11.030;2023-07-13T00:13:57;18.10;99.90
10911;DHT22;5508;49.150;11.030;2023-07-13T00:16:58;18.00;99.90
10911;DHT22;5508;49.150;11.030;2023-07-13T00:20:00;18.00;99.90
10911;DHT22;5508;49.150;11.030;2023-07-13T00:23:01;18.00;99.90
10911;DHT22;5508;49.150;11.030;2023-07-13T00:26:04;18.00;99.90
10911;DHT22;5508;49.150;11.030;2023-07-13T00:29:05;18.00;99.90
10911;DHT22;5508;49.150;11.030;2023-07-13T00:32:10;18.00;99.90
10911;DHT22;5508;49.150;11.030;2023-07-13T00:35:13;17.90;99.90
10911;DHT22;5508;49.150;11.030;2023-07-13T00:38:14;17.90;99.90
10911;DHT22;5508;49.150;11.030;2023-07-13T00:41:15;17.80;99.90
10911;DHT22;5508;49.150;11.030;2023-07-13T00:44:18;18.00;99.90
10911;DHT22;5508;49.150;11.030;2023-07-13T00:47:19;18.00;99.90
10911;DHT22;5508;49.150;11.030;2023-07-13T00:50:20;17.90;99.90
10911;DHT22;5508;49.150;11.030;2023-07-13T00:53:21;17.80;99.90
10911;DHT22;5508;49.150;11.030;2023-07-13T00:56:22;17.70;99.90
10911;DHT22;5508;49.150;11.030;2023-07-13T00:59:24;17.70;99.90
10911;DHT22;5508;49.150;11.030;2023-07-13T01:02:27;17.60;99.90
10911;DHT22;5508;49.150;11.030;2023-07-13T01:05:28;17.60;99.90
10911;DHT22;5508;49.150;11.030;2023-07-13T01:08:29;17.60;99.90
10911;DHT22;5508;49.150;11.030;2023-07-13T01:11:30;17.50;99.90
10911;DHT22;5508;49.150;11.030;2023-07-13T01:14:30;17.40;99.90
10911;DHT22;5508;49.150;11.030;2023-07-13T01:17:33;17.40;99.90
10911;DHT22;5508;49.150;11.030;2023-07-13T01:20:34;17.40;99.90
10911;DHT22;5508;49.150;11.030;2023-07-13T01:23:36;17.40;99.90
10911;DHT22;5508;49.150;11.030;2023-07-13T01:26:37;17.40;99.70
10911;DHT22;5508;49.150;11.030;2023-07-13T01:29:38;17.30;99.40
10911;DHT22;5508;49.150;11.030;2023-07-13T01:32:42;17.20;99.50
10911;DHT22;5508;49.150;11.030;2023-07-13T01:35:44;17.20;99.90
10911;DHT22;5508;49.150;11.030;2023-07-13T01:38:44;17.10;99.90
10911;DHT22;5508;49.150;11.030;2023-07-13T01:41:45;17.10;99.90
10911;DHT22;5508;49.150;11.030;2023-07-13T01:44:45;17.10;99.70
10911;DHT22;5508;49.150;11.030;2023-07-13T01:47:46;17.00;99.30
10911;DHT22;5508;49.150;11.030;2023-07-13T01:50:47;16.90;99.20
10911;DHT22;5508;49.150;11.030;2023-07-13T01:53:48;16.90;99.80
10911;DHT22;5508;49.150;11.030;2023-07-13T01:56:48;16.90;98.60
10911;DHT22;5508;49.150;11.030;2023-07-13T01:59:49;16.80;98.80
10911;DHT22;5508;49.150;11.030;2023-07-13T02:02:50;16.80;99.20
10911;DHT22;5508;49.150;11.030;2023-07-13T02:05:50;16.70;99.20
10911;DHT22;5508;49.150;11.030;2023-07-13T02:08:51;16.70;99.60
10911;DHT22;5508;49.150;11.030;2023-07-13T02:11:51;16.60;99.70
10911;DHT22;5508;49.150;11.030;2023-07-13T02:14:52;16.60;99.00
10911;DHT22;5508;49.150;11.030;2023-07-13T02:17:53;16.60;96.90
10911;DHT22;5508;49.150;11.030;2023-07-13T02:20:54;16.50;94.70
10911;DHT22;5508;49.150;11.030;2023-07-13T02:23:54;16.60;94.80
10911;DHT22;5508;49.150;11.030;2023-07-13T02:26:55;16.60;93.00
10911;DHT22;5508;49.150;11.030;2023-07-13T02:29:55;16.60;93.30
10911;DHT22;5508;49.150;11.030;2023-07-13T02:32:57;16.60;93.40
10911;DHT22;5508;49.150;11.030;2023-07-13T02:35:57;16.50;94.00
10911;DHT22;5508;49.150;11.030;2023-07-13T02:39:00;16.50;92.80
10911;DHT22;5508;49.150;11.030;2023-07-13T02:42:01;16.50;94.00
10911;DHT22;5508;49.150;11.030;2023-07-13T02:45:02;16.40;93.30
10911;DHT22;5508;49.150;11.030;2023-07-13T02:48:03;16.40;94.00
10911;DHT22;5508;49.150;11.030;2023-07-13T02:51:03;16.40;94.20
10911;DHT22;5508;49.150;11.030;2023-07-13T02:54:04;16.30;96.40
10911;DHT22;5508;49.150;11.030;2023-07-13T02:57:05;16.20;97.70
10911;DHT22;5508;49.150;11.030;2023-07-13T03:00:07;16.10;97.80
10911;DHT22;5508;49.150;11.030;2023-07-13T03:03:08;16.10;98.80
10911;DHT22;5508;49.150;11.030;2023-07-13T03:06:08;16.10;99.00
10911;DHT22;5508;49.150;11.030;2023-07-13T03:09:09;16.00;98.80
10911;DHT22;5508;49.150;11.030;2023-07-13T03:12:10;15.90;98.30
10911;DHT22;5508;49.150;11.030;2023-07-13T03:15:10;15.80;98.50
10911;DHT22;5508;49.150;11.030;2023-07-13T03:18:11;15.70;98.40
10911;DHT22;5508;49.150;11.030;2023-07-13T03:21:11;15.90;96.30
10911;DHT22;5508;49.150;11.030;2023-07-13T03:24:12;16.00;95.10
10911;DHT22;5508;49.150;11.030;2023-07-13T03:27:13;16.00;95.60
10911;DHT22;5508;49.150;11.030;2023-07-13T03:30:13;15.90;95.60
10911;DHT22;5508;49.150;11.030;2023-07-13T03:33:14;15.70;96.20
10911;DHT22;5508;49.150;11.030;2023-07-13T03:36:23;15.70;95.90
10911;DHT22;5508;49.150;11.030;2023-07-13T03:39:24;15.60;95.00
10911;DHT22;5508;49.150;11.030;2023-07-13T03:42:25;15.60;95.60
10911;DHT22;5508;49.150;11.030;2023-07-13T03:45:26;15.70;95.60
10911;DHT22;5508;49.150;11.030;2023-07-13T03:48:26;15.70;94.30
10911;DHT22;5508;49.150;11.030;2023-07-13T03:51:27;15.80;91.60
10911;DHT22;5508;49.150;11.030;2023-07-13T03:54:27;15.80;90.40
10911;DHT22;5508;49.150;11.030;2023-07-13T03:57:28;15.80;90.50
10911;DHT22;5508;49.150;11.030;2023-07-13T04:00:28;15.50;91.50
10911;DHT22;5508;49.150;11.030;2023-07-13T04:03:30;15.60;90.40
10911;DHT22;5508;49.150;11.030;2023-07-13T04:06:33;15.70;90.30
10911;DHT22;5508;49.150;11.030;2023-07-13T04:09:34;15.70;88.40
10911;DHT22;5508;49.150;11.030;2023-07-13T04:12:35;15.70;88.30
10911;DHT22;5508;49.150;11.030;2023-07-13T04:15:35;15.70;87.20
10911;DHT22;5508;49.150;11.030;2023-07-13T04:18:36;15.80;87.60
10911;DHT22;5508;49.150;11.030;2023-07-13T04:21:37;15.80;86.50
10911;DHT22;5508;49.150;11.030;2023-07-13T04:24:37;15.80;87.10
10911;DHT22;5508;49.150;11.030;2023-07-13T04:27:38;15.80;86.80
10911;DHT22;5508;49.150;11.030;2023-07-13T04:30:39;15.60;85.20
10911;DHT22;5508;49.150;11.030;2023-07-13T04:33:40;15.70;85.60
10911;DHT22;5508;49.150;11.030;2023-07-13T04:36:41;15.70;86.70
10911;DHT22;5508;49.150;11.030;2023-07-13T04:39:41;15.70;85.40
10911;DHT22;5508;49.150;11.030;2023-07-13T04:42:42;15.80;84.40
10911;DHT22;5508;49.150;11.030;2023-07-13T04:45:43;15.80;84.60
10911;DHT22;5508;49.150;11.030;2023-07-13T04:48:43;15.90;84.70
10911;DHT22;5508;49.150;11.030;2023-07-13T04:51:44;16.00;84.50
10911;DHT22;5508;49.150;11.030;2023-07-13T04:54:44;16.20;79.80
10911;DHT22;5508;49.150;11.030;2023-07-13T04:57:46;16.30;79.70
10911;DHT22;5508;49.150;11.030;2023-07-13T05:00:47;16.50;80.20
10911;DHT22;5508;49.150;11.030;2023-07-13T05:03:47;16.60;80.00
10911;DHT22;5508;49.150;11.030;2023-07-13T05:06:48;16.70;79.20
10911;DHT22;5508;49.150;11.030;2023-07-13T05:09:48;16.80;76.00
10911;DHT22;5508;49.150;11.030;2023-07-13T05:12:49;16.70;76.00
10911;DHT22;5508;49.150;11.030;2023-07-13T05:16:01;16.70;76.10
10911;DHT22;5508;49.150;11.030;2023-07-13T05:19:02;16.80;76.00
10911;DHT22;5508;49.150;11.030;2023-07-13T05:22:03;16.80;76.30
10911;DHT22;5508;49.150;11.030;2023-07-13T05:25:05;16.90;75.10
10911;DHT22;5508;49.150;11.030;2023-07-13T05:28:06;16.90;74.70
10911;DHT22;5508;49.150;11.030;2023-07-13T05:31:09;17.10;73.80
10911;DHT22;5508;49.150;11.030;2023-07-13T05:34:09;17.20;71.70
10911;DHT22;5508;49.150;11.030;2023-07-13T05:37:10;17.40;71.60
10911;DHT22;5508;49.150;11.030;2023-07-13T05:40:11;17.50;71.40
10911;DHT22;5508;49.150;11.030;2023-07-13T05:43:11;17.70;71.10
10911;DHT22;5508;49.150;11.030;2023-07-13T05:46:12;17.80;70.00
10911;DHT22;5508;49.150;11.030;2023-07-13T05:49:13;18.00;68.80
10911;DHT22;5508;49.150;11.030;2023-07-13T05:52:13;18.00;69.80
10911;DHT22;5508;49.150;11.030;2023-07-13T05:55:14;18.10;68.30
10911;DHT22;5508;49.150;11.030;2023-07-13T05:58:16;18.20;65.70
10911;DHT22;5508;49.150;11.030;2023-07-13T06:01:17;18.30;64.70
10911;DHT22;5508;49.150;11.030;2023-07-13T06:04:19;18.50;65.90
10911;DHT22;5508;49.150;11.030;2023-07-13T06:07:20;18.90;64.50
10911;DHT22;5508;49.150;11.030;2023-07-13T06:10:21;19.10;62.50
10911;DHT22;5508;49.150;11.030;2023-07-13T06:13:21;19.00;62.50
10911;DHT22;5508;49.150;11.030;2023-07-13T06:16:22;19.00;62.10
10911;DHT22;5508;49.150;11.030;2023-07-13T06:19:23;18.90;63.10
10911;DHT22;5508;49.150;11.030;2023-07-13T06:22:24;19.10;62.40
10911;DHT22;5508;49.150;11.030;2023-07-13T06:25:26;19.00;61.10
10911;DHT22;5508;49.150;11.030;2023-07-13T06:28:28;18.90;61.80
10911;DHT22;5508;49.150;11.030;2023-07-13T06:31:29;18.90;62.50
10911;DHT22;5508;49.150;11.030;2023-07-13T06:34:30;19.00;61.20
10911;DHT22;5508;49.150;11.030;2023-07-13T06:37:30;19.00;61.40
10911;DHT22;5508;49.150;11.030;2023-07-13T06:40:31;19.20;60.80
10911;DHT22;5508;49.150;11.030;2023-07-13T06:43:32;19.20;60.80
10911;DHT22;5508;49.150;11.030;2023-07-13T06:46:32;19.30;59.30
10911;DHT22;5508;49.150;11.030;2023-07-13T06:49:33;19.30;59.60
10911;DHT22;5508;49.150;11.030;2023-07-13T06:52:34;19.40;57.40
10911;DHT22;5508;49.150;11.030;2023-07-13T06:55:34;19.30;58.30
10911;DHT22;5508;49.150;11.030;2023-07-13T06:58:35;19.30;61.00
10911;DHT22;5508;49.150;11.030;2023-07-13T07:01:35;19.20;59.30
10911;DHT22;5508;49.150;11.030;2023-07-13T07:04:36;19.30;60.70
10911;DHT22;5508;49.150;11.030;2023-07-13T07:07:37;19.30;61.70
10911;DHT22;5508;49.150;11.030;2023-07-13T07:10:37;19.30;60.10
10911;DHT22;5508;49.150;11.030;2023-07-13T07:13:38;19.20;60.00
10911;DHT22;5508;49.150;11.030;2023-07-13T07:16:38;19.30;60.40
10911;DHT22;5508;49.150;11.030;2023-07-13T07:19:39;19.40;59.20
10911;DHT22;5508;49.150;11.030;2023-07-13T07:22:40;19.40;60.80
10911;DHT22;5508;49.150;11.030;2023-07-13T07:25:44;19.50;59.40
10911;DHT22;5508;49.150;11.030;2023-07-13T07:28:44;20.00;58.90
10911;DHT22;5508;49.150;11.030;2023-07-13T07:31:45;20.50;57.50
10911;DHT22;5508;49.150;11.030;2023-07-13T07:34:46;20.80;54.60
10911;DHT22;5508;49.150;11.030;2023-07-13T07:37:47;20.60;54.70
10911;DHT22;5508;49.150;11.030;2023-07-13T07:40:47;20.20;54.20
10911;DHT22;5508;49.150;11.030;2023-07-13T07:43:48;19.90;56.80
10911;DHT22;5508;49.150;11.030;2023-07-13T07:46:49;20.20;56.00
10911;DHT22;5508;49.150;11.030;2023-07-13T07:49:50;20.50;54.70
10911;DHT22;5508;49.150;11.030;2023-07-13T07:52:51;20.90;55.80
10911;DHT22;5508;49.150;11.030;2023-07-13T07:55:51;21.20;52.00
10911;DHT22;5508;49.150;11.030;2023-07-13T07:58:52;21.30;51.60
10911;DHT22;5508;49.150;11.030;2023-07-13T08:01:53;21.50;50.20
10911;DHT22;5508;49.150;11.030;2023-07-13T08:04:53;21.40;50.90
10911;DHT22;5508;49.150;11.030;2023-07-13T08:07:55;21.50;50.00
10911;DHT22;5508;49.150;11.030;2023-07-13T08:10:55;21.40;48.90
10911;DHT22;5508;49.150;11.030;2023-07-13T08:13:56;21.50;49.30
10911;DHT22;5508;49.150;11.030;2023-07-13T08:16:57;21.70;47.80
10911;DHT22;5508;49.150;11.030;2023-07-13T08:19:58;21.70;47.50
10911;DHT22;5508;49.150;11.030;2023-07-13T08:22:59;21.60;45.10
10911;DHT22;5508;49.150;11.030;2023-07-13T08:26:00;21.70;44.40
10911;DHT22;5508;49.150;11.030;2023-07-13T08:29:01;21.60;44.40
10911;DHT22;5508;49.150;11.030;2023-07-13T08:32:04;21.70;46.20
10911;DHT22;5508;49.150;11.030;2023-07-13T08:35:05;21.80;46.20
10911;DHT22;5508;49.150;11.030;2023-07-13T08:38:06;22.00;44.60
10911;DHT22;5508;49.150;11.030;2023-07-13T08:41:16;22.20;43.50
10911;DHT22;5508;49.150;11.030;2023-07-13T08:44:30;22.10;42.80
10911;DHT22;5508;49.150;11.030;2023-07-13T08:47:40;22.30;42.30
10911;DHT22;5508;49.150;11.030;2023-07-13T08:50:52;22.30;41.00
10911;DHT22;5508;49.150;11.030;2023-07-13T08:54:03;22.60;40.20
10911;DHT22;5508;49.150;11.030;2023-07-13T08:57:15;22.60;40.00
10911;DHT22;5508;49.150;11.030;2023-07-13T09:00:16;22.60;39.80
10911;DHT22;5508;49.150;11.030;2023-07-13T09:03:21;22.50;41.30
10911;DHT22;5508;49.150;11.030;2023-07-13T09:13:37;23.20;41.50
10911;DHT22;5508;49.150;11.030;2023-07-13T09:16:41;23.10;38.90
10911;DHT22;5508;49.150;11.030;2023-07-13T09:19:43;23.00;39.50
10911;DHT22;5508;49.150;11.030;2023-07-13T09:22:47;23.40;37.80
10911;DHT22;5508;49.150;11.030;2023-07-13T09:25:51;23.50;40.00
10911;DHT22;5508;49.150;11.030;2023-07-13T09:29:12;23.60;39.40
10911;DHT22;5508;49.150;11.030;2023-07-13T09:32:14;23.30;38.70
10911;DHT22;5508;49.150;11.030;2023-07-13T09:35:25;23.00;36.70
10911;DHT22;5508;49.150;11.030;2023-07-13T09:38:29;22.70;38.40
10911;DHT22;5508;49.150;11.030;2023-07-13T09:44:56;22.50;38.10
10911;DHT22;5508;49.150;11.030;2023-07-13T09:48:05;22.70;37.90
10911;DHT22;5508;49.150;11.030;2023-07-13T09:51:15;23.10;39.10
10911;DHT22;5508;49.150;11.030;2023-07-13T09:54:19;23.50;38.00
10911;DHT22;5508;49.150;11.030;2023-07-13T09:57:23;23.60;36.50
10911;DHT22;5508;49.150;11.030;2023-07-13T10:00:28;23.40;37.30
10911;DHT22;5508;49.150;11.030;2023-07-13T10:03:32;23.60;35.80
10911;DHT22;5508;49.150;11.030;2023-07-13T10:06:39;23.60;37.90
10911;DHT22;5508;49.150;11.030;2023-07-13T10:09:41;23.90;37.20
10911;DHT22;5508;49.150;11.030;2023-07-13T10:12:41;24.00;38.30
10911;DHT22;5508;49.150;11.030;2023-07-13T10:15:43;23.90;35.10
10911;DHT22;5508;49.150;11.030;2023-07-13T10:18:53;23.70;35.20
10911;DHT22;5508;49.150;11.030;2023-07-13T10:21:57;23.80;35.40
10911;DHT22;5508;49.150;11.030;2023-07-13T10:25:01;24.10;34.10
10911;DHT22;5508;49.150;11.030;2023-07-13T10:28:11;24.00;35.90
10911;DHT22;5508;49.150;11.030;2023-07-13T10:31:17;24.00;35.20
10911;DHT22;5508;49.150;11.030;2023-07-13T10:34:18;24.00;35.40
10911;DHT22;5508;49.150;11.030;2023-07-13T10:37:22;23.80;35.10
10911;DHT22;5508;49.150;11.030;2023-07-13T10:40:29;24.10;33.20
10911;DHT22;5508;49.150;11.030;2023-07-13T10:43:38;24.20;35.50
10911;DHT22;5508;49.150;11.030;2023-07-13T10:46:41;24.60;32.40
10911;DHT22;5508;49.150;11.030;2023-07-13T10:49:42;24.30;33.20
10911;DHT22;5508;49.150;11.030;2023-07-13T10:52:48;24.30;35.00
10911;DHT22;5508;49.150;11.030;2023-07-13T10:56:00;24.60;33.80
10911;DHT22;5508;49.150;11.030;2023-07-13T10:59:27;24.60;32.40
10911;DHT22;5508;49.150;11.030;2023-07-13T11:02:28;24.70;32.90
10911;DHT22;5508;49.150;11.030;2023-07-13T11:05:32;24.60;33.30
10911;DHT22;5508;49.150;11.030;2023-07-13T11:08:36;24.60;33.00
10911;DHT22;5508;49.150;11.030;2023-07-13T11:11:38;24.60;33.60
10911;DHT22;5508;49.150;11.030;2023-07-13T11:15:02;24.10;33.00
10911;DHT22;5508;49.150;11.030;2023-07-13T11:18:20;24.60;34.00
10911;DHT22;5508;49.150;11.030;2023-07-13T11:21:25;25.00;31.40
10911;DHT22;5508;49.150;11.030;2023-07-13T11:24:29;25.30;32.80
10911;DHT22;5508;49.150;11.030;2023-07-13T11:27:51;25.20;30.40
10911;DHT22;5508;49.150;11.030;2023-07-13T11:33:58;25.10;32.10
10911;DHT22;5508;49.150;11.030;2023-07-13T11:37:01;25.30;33.00
10911;DHT22;5508;49.150;11.030;2023-07-13T11:40:02;25.40;30.90
10911;DHT22;5508;49.150;11.030;2023-07-13T11:43:06;25.30;33.20
10911;DHT22;5508;49.150;11.030;2023-07-13T11:46:34;25.60;31.80
10911;DHT22;5508;49.150;11.030;2023-07-13T11:49:42;25.40;30.50
10911;DHT22;5508;49.150;11.030;2023-07-13T11:52:43;25.50;29.40
10911;DHT22;5508;49.150;11.030;2023-07-13T11:55:44;25.40;30.90
10911;DHT22;5508;49.150;11.030;2023-07-13T11:58:53;24.90;31.70
10911;DHT22;5508;49.150;11.030;2023-07-13T12:01:55;24.70;31.70
10911;DHT22;5508;49.150;11.030;2023-07-13T12:04:58;24.70;32.60
10911;DHT22;5508;49.150;11.030;2023-07-13T12:08:09;24.40;31.90
10911;DHT22;5508;49.150;11.030;2023-07-13T12:11:16;24.20;31.80
10911;DHT22;5508;49.150;11.030;2023-07-13T12:14:18;24.40;31.80
10911;DHT22;5508;49.150;11.030;2023-07-13T12:17:21;24.90;30.80
10911;DHT22;5508;49.150;11.030;2023-07-13T12:20:35;25.00;30.70
10911;DHT22;5508;49.150;11.030;2023-07-13T12:23:37;24.60;32.10
10911;DHT22;5508;49.150;11.030;2023-07-13T12:26:38;25.00;33.00
10911;DHT22;5508;49.150;11.030;2023-07-13T12:29:39;25.50;31.80
10911;DHT22;5508;49.150;11.030;2023-07-13T12:32:39;25.90;31.10
10911;DHT22;5508;49.150;11.030;2023-07-13T12:35:51;26.00;30.00
10911;DHT22;5508;49.150;11.030;2023-07-13T12:38:53;25.90;29.50
10911;DHT22;5508;49.150;11.030;2023-07-13T12:41:54;25.80;29.90
10911;DHT22;5508;49.150;11.030;2023-07-13T12:45:21;25.80;30.10
10911;DHT22;5508;49.150;11.030;2023-07-13T12:48:22;25.70;31.30
10911;DHT22;5508;49.150;11.030;2023-07-13T12:51:25;25.90;30.70
10911;DHT22;5508;49.150;11.030;2023-07-13T12:54:27;25.70;30.90
10911;DHT22;5508;49.150;11.030;2023-07-13T12:57:29;25.70;29.90
10911;DHT22;5508;49.150;11.030;2023-07-13T13:00:35;25.50;29.00
10911;DHT22;5508;49.150;11.030;2023-07-13T13:03:39;25.40;29.60
10911;DHT22;5508;49.150;11.030;2023-07-13T13:06:41;25.50;29.40
10911;DHT22;5508;49.150;11.030;2023-07-13T13:09:44;25.60;30.10
10911;DHT22;5508;49.150;11.030;2023-07-13T13:12:45;25.50;28.50
10911;DHT22;5508;49.150;11.030;2023-07-13T13:15:46;25.40;28.90
10911;DHT22;5508;49.150;11.030;2023-07-13T13:18:52;25.30;28.10
10911;DHT22;5508;49.150;11.030;2023-07-13T13:21:55;25.20;29.50
10911;DHT22;5508;49.150;11.030;2023-07-13T13:24:57;25.20;30.20
10911;DHT22;5508;49.150;11.030;2023-07-13T13:27:57;25.10;30.30
10911;DHT22;5508;49.150;11.030;2023-07-13T13:30:58;24.90;30.60
10911;DHT22;5508;49.150;11.030;2023-07-13T13:33:58;24.70;31.40
10911;DHT22;5508;49.150;11.030;2023-07-13T13:36:59;25.00;33.10
10911;DHT22;5508;49.150;11.030;2023-07-13T13:40:00;25.10;30.80
10911;DHT22;5508;49.150;11.030;2023-07-13T13:43:00;25.30;29.00
10911;DHT22;5508;49.150;11.030;2023-07-13T13:46:01;25.60;28.20
10911;DHT22;5508;49.150;11.030;2023-07-13T13:49:02;25.70;29.00
10911;DHT22;5508;49.150;11.030;2023-07-13T13:52:03;25.80;28.30
10911;DHT22;5508;49.150;11.030;2023-07-13T13:55:12;25.40;29.50
10911;DHT22;5508;49.150;11.030;2023-07-13T13:58:12;24.90;29.50
10911;DHT22;5508;49.150;11.030;2023-07-13T14:01:17;24.90;29.90
10911;DHT22;5508;49.150;11.030;2023-07-13T14:04:20;25.20;29.80
10911;DHT22;5508;49.150;11.030;2023-07-13T14:07:21;25.50;28.90
10911;DHT22;5508;49.150;11.030;2023-07-13T14:10:22;25.20;30.00
10911;DHT22;5508;49.150;11.030;2023-07-13T14:13:28;24.80;30.20
10911;DHT22;5508;49.150;11.030;2023-07-13T14:16:33;24.60;30.40
10911;DHT22;5508;49.150;11.030;2023-07-13T14:19:34;25.20;31.00
10911;DHT22;5508;49.150;11.030;2023-07-13T14:22:34;25.00;29.80
10911;DHT22;5508;49.150;11.030;2023-07-13T14:25:35;24.70;30.40
10911;DHT22;5508;49.150;11.030;2023-07-13T14:28:37;24.60;30.30
10911;DHT22;5508;49.150;11.030;2023-07-13T14:31:39;25.00;31.70
10911;DHT22;5508;49.150;11.030;2023-07-13T14:34:40;25.10;31.60
10911;DHT22;5508;49.150;11.030;2023-07-13T14:37:41;25.30;30.60
10911;DHT22;5508;49.150;11.030;2023-07-13T14:40:42;25.40;29.80
10911;DHT22;5508;49.150;11.030;2023-07-13T14:43:42;25.60;30.70
10911;DHT22;5508;49.150;11.030;2023-07-13T14:46:44;25.40;28.60
10911;DHT22;5508;49.150;11.030;2023-07-13T14:49:46;25.40;29.20
10911;DHT22;5508;49.150;11.030;2023-07-13T14:52:48;25.30;30.80
10911;DHT22;5508;49.150;11.030;2023-07-13T14:55:48;25.10;30.10
10911;DHT22;5508;49.150;11.030;2023-07-13T14:58:49;25.30;29.10
10911;DHT22;5508;49.150;11.030;2023-07-13T15:01:50;25.40;28.80
10911;DHT22;5508;49.150;11.030;2023-07-13T15:04:51;25.20;29.20
10911;DHT22;5508;49.150;11.030;2023-07-13T15:07:53;25.30;29.70
10911;DHT22;5508;49.150;11.030;2023-07-13T15:10:54;25.40;29.70
10911;DHT22;5508;49.150;11.030;2023-07-13T15:13:57;25.60;28.50
10911;DHT22;5508;49.150;11.030;2023-07-13T15:16:58;25.50;28.20
10911;DHT22;5508;49.150;11.030;2023-07-13T15:20:00;25.40;29.50
10911;DHT22;5508;49.150;11.030;2023-07-13T15:23:01;25.50;30.10
10911;DHT22;5508;49.150;11.030;2023-07-13T15:26:01;25.30;31.50
10911;DHT22;5508;49.150;11.030;2023-07-13T15:29:04;25.30;31.20
10911;DHT22;5508;49.150;11.030;2023-07-13T15:32:08;24.70;29.80
10911;DHT22;5508;49.150;11.030;2023-07-13T15:35:21;24.50;31.60
10911;DHT22;5508;49.150;11.030;2023-07-13T15:38:29;24.30;31.20
10911;DHT22;5508;49.150;11.030;2023-07-13T15:41:31;24.50;32.10
10911;DHT22;5508;49.150;11.030;2023-07-13T15:44:32;24.80;31.50
10911;DHT22;5508;49.150;11.030;2023-07-13T15:47:33;24.70;30.60
10911;DHT22;5508;49.150;11.030;2023-07-13T15:50:43;24.40;31.20
10911;DHT22;5508;49.150;11.030;2023-07-13T15:53:44;24.40;31.70
10911;DHT22;5508;49.150;11.030;2023-07-13T15:56:48;24.60;32.20
10911;DHT22;5508;49.150;11.030;2023-07-13T15:59:50;24.70;31.60
10911;DHT22;5508;49.150;11.030;2023-07-13T16:02:51;24.90;29.00
10911;DHT22;5508;49.150;11.030;2023-07-13T16:05:53;24.90;30.20
10911;DHT22;5508;49.150;11.030;2023-07-13T16:08:54;24.90;29.90
10911;DHT22;5508;49.150;11.030;2023-07-13T16:11:55;25.00;29.80
10911;DHT22;5508;49.150;11.030;2023-07-13T16:14:57;24.90;29.80
10911;DHT22;5508;49.150;11.030;2023-07-13T16:17:58;24.60;29.50
10911;DHT22;5508;49.150;11.030;2023-07-13T16:20:59;24.40;30.60
10911;DHT22;5508;49.150;11.030;2023-07-13T16:24:01;24.30;31.10
10911;DHT22;5508;49.150;11.030;2023-07-13T16:27:02;24.50;31.90
10911;DHT22;5508;49.150;11.030;2023-07-13T16:30:12;24.70;29.90
10911;DHT22;5508;49.150;11.030;2023-07-13T16:33:13;24.70;30.30
10911;DHT22;5508;49.150;11.030;2023-07-13T16:36:13;24.60;29.70
10911;DHT22;5508;49.150;11.030;2023-07-13T16:39:14;24.60;30.50
10911;DHT22;5508;49.150;11.030;2023-07-13T16:42:16;24.50;30.50
10911;DHT22;5508;49.150;11.030;2023-07-13T16:45:17;24.30;30.40
10911;DHT22;5508;49.150;11.030;2023-07-13T16:48:19;24.40;31.30
10911;DHT22;5508;49.150;11.030;2023-07-13T16:51:20;24.40;31.20
10911;DHT22;5508;49.150;11.030;2023-07-13T16:54:21;24.20;30.90
10911;DHT22;5508;49.150;11.030;2023-07-13T16:57:27;24.10;31.40
10911;DHT22;5508;49.150;11.030;2023-07-13T17:00:32;24.10;30.90
10911;DHT22;5508;49.150;11.030;2023-07-13T17:03:33;24.00;31.90
10911;DHT22;5508;49.150;11.030;2023-07-13T17:06:33;24.00;31.70
10911;DHT22;5508;49.150;11.030;2023-07-13T17:09:34;23.90;33.10
10911;DHT22;5508;49.150;11.030;2023-07-13T17:12:35;23.70;33.00
10911;DHT22;5508;49.150;11.030;2023-07-13T17:15:36;23.70;33.50
10911;DHT22;5508;49.150;11.030;2023-07-13T17:18:37;23.70;32.50
10911;DHT22;5508;49.150;11.030;2023-07-13T17:21:37;23.60;33.60
10911;DHT22;5508;49.150;11.030;2023-07-13T17:24:39;23.50;33.50
10911;DHT22;5508;49.150;11.030;2023-07-13T17:27:40;23.40;34.40
10911;DHT22;5508;49.150;11.030;2023-07-13T17:30:43;23.40;34.80
10911;DHT22;5508;49.150;11.030;2023-07-13T17:33:44;23.30;34.80
10911;DHT22;5508;49.150;11.030;2023-07-13T17:36:48;23.30;34.30
10911;DHT22;5508;49.150;11.030;2023-07-13T17:39:49;23.20;36.20
10911;DHT22;5508;49.150;11.030;2023-07-13T17:42:50;23.10;35.60
10911;DHT22;5508;49.150;11.030;2023-07-13T17:45:57;23.00;36.60
10911;DHT22;5508;49.150;11.030;2023-07-13T17:48:58;22.90;35.90
10911;DHT22;5508;49.150;11.030;2023-07-13T17:51:59;22.70;37.30
10911;DHT22;5508;49.150;11.030;2023-07-13T17:55:15;22.70;37.70
10911;DHT22;5508;49.150;11.030;2023-07-13T17:58:16;22.60;38.50
10911;DHT22;5508;49.150;11.030;2023-07-13T18:01:19;22.50;38.50
10911;DHT22;5508;49.150;11.030;2023-07-13T18:04:20;22.50;38.90
10911;DHT22;5508;49.150;11.030;2023-07-13T18:07:23;22.30;38.40
10911;DHT22;5508;49.150;11.030;2023-07-13T18:10:28;22.20;39.20
10911;DHT22;5508;49.150;11.030;2023-07-13T18:13:30;22.10;38.50
10911;DHT22;5508;49.150;11.030;2023-07-13T18:16:40;22.10;39.60
10911;DHT22;5508;49.150;11.030;2023-07-13T18:19:47;22.00;40.10
10911;DHT22;5508;49.150;11.030;2023-07-13T18:22:52;21.80;41.20
10911;DHT22;5508;49.150;11.030;2023-07-13T18:25:53;21.80;39.30
10911;DHT22;5508;49.150;11.030;2023-07-13T18:28:54;21.70;40.00
10911;DHT22;5508;49.150;11.030;2023-07-13T18:31:54;21.70;41.20
10911;DHT22;5508;49.150;11.030;2023-07-13T18:34:57;21.60;42.20
10911;DHT22;5508;49.150;11.030;2023-07-13T18:37:58;21.60;41.00
10911;DHT22;5508;49.150;11.030;2023-07-13T18:40:59;21.50;40.90
10911;DHT22;5508;49.150;11.030;2023-07-13T18:43:59;21.40;42.00
10911;DHT22;5508;49.150;11.030;2023-07-13T18:47:00;21.30;41.30
10911;DHT22;5508;49.150;11.030;2023-07-13T18:50:01;21.20;40.70
10911;DHT22;5508;49.150;11.030;2023-07-13T18:53:02;21.00;43.00
10911;DHT22;5508;49.150;11.030;2023-07-13T18:56:03;20.90;43.30
10911;DHT22;5508;49.150;11.030;2023-07-13T18:59:04;20.80;43.80
10911;DHT22;5508;49.150;11.030;2023-07-13T19:02:15;20.60;45.60
10911;DHT22;5508;49.150;11.030;2023-07-13T19:05:18;20.40;46.60
10911;DHT22;5508;49.150;11.030;2023-07-13T19:08:22;20.20;48.70
10911;DHT22;5508;49.150;11.030;2023-07-13T19:11:23;20.10;49.20
10911;DHT22;5508;49.150;11.030;2023-07-13T19:14:24;19.90;49.50
10911;DHT22;5508;49.150;11.030;2023-07-13T19:20:27;19.60;48.90
10911;DHT22;5508;49.150;11.030;2023-07-13T19:26:32;19.20;51.90
10911;DHT22;5508;49.150;11.030;2023-07-13T19:29:34;19.00;53.20
10911;DHT22;5508;49.150;11.030;2023-07-13T19:32:36;18.90;54.00